createdAt,value
2023-01-13T00:00:05.445Z,1031.32
2023-01-13T00:01:06.071Z,1031.25
2023-01-13T00:02:06.705Z,1031.30
2023-01-13T00:03:07.294Z,1031.35
2023-01-13T00:04:07.928Z,1031.35
2023-01-13T00:05:08.555Z,1031.43
2023-01-13T00:06:09.144Z,1031.35
2023-01-13T00:07:09.741Z,1031.33
2023-01-13T00:08:10.403Z,1031.42
2023-01-13T00:09:10.976Z,1031.39
2023-01-13T00:10:11.664Z,1031.29
2023-01-13T00:11:13.069Z,1031.29
2023-01-13T00:12:13.649Z,1031.20
2023-01-13T00:13:14.242Z,1031.23
2023-01-13T00:14:14.834Z,1031.20
2023-01-13T00:15:15.498Z,1031.26
2023-01-13T00:16:16.138Z,1031.29
2023-01-13T00:17:16.725Z,1031.39
2023-01-13T00:18:17.312Z,1031.32
2023-01-13T00:19:17.903Z,1031.26
2023-01-13T00:20:18.499Z,1031.22
2023-01-13T00:21:19.096Z,1031.28
2023-01-13T00:22:19.739Z,1031.27
2023-01-13T00:23:20.387Z,1031.37
2023-01-13T00:24:20.985Z,1031.34
2023-01-13T00:25:21.572Z,1031.28
2023-01-13T00:26:22.164Z,1031.27
2023-01-13T00:27:22.760Z,1031.26
2023-01-13T00:28:23.352Z,1031.24
2023-01-13T00:29:23.945Z,1031.20
2023-01-13T00:30:25.352Z,1031.16
2023-01-13T00:31:25.983Z,1031.11
2023-01-13T00:32:27.444Z,1031.12
2023-01-13T00:33:28.180Z,1031.12
2023-01-13T00:34:28.779Z,1031.06
2023-01-13T00:35:30.173Z,1031.07
2023-01-13T00:36:30.779Z,1031.09
2023-01-13T00:37:31.367Z,1031.04
2023-01-13T00:38:32.065Z,1030.97
2023-01-13T00:39:32.656Z,1030.98
2023-01-13T00:40:33.250Z,1030.90
2023-01-13T00:41:33.845Z,1030.92
2023-01-13T00:42:34.441Z,1030.90
2023-01-13T00:43:35.039Z,1030.88
2023-01-13T00:44:35.643Z,1030.92
2023-01-13T00:45:36.217Z,1030.84
2023-01-13T00:46:36.855Z,1030.92
2023-01-13T00:47:37.452Z,1030.89
2023-01-13T00:48:38.906Z,1030.77
2023-01-13T00:49:39.480Z,1030.81
2023-01-13T00:50:40.076Z,1030.79
2023-01-13T00:51:40.668Z,1030.83
2023-01-13T00:52:42.383Z,1030.74
2023-01-13T00:53:42.863Z,1030.81
2023-01-13T00:54:43.458Z,1030.76
2023-01-13T00:55:44.026Z,1030.72
2023-01-13T00:56:44.617Z,1030.68
2023-01-13T00:57:45.208Z,1030.68
2023-01-13T00:58:45.788Z,1030.59
2023-01-13T00:59:48.008Z,1030.63
2023-01-13T01:00:47.986Z,1030.71
2023-01-13T01:01:48.708Z,1030.60
2023-01-13T01:02:49.326Z,1030.58
2023-01-13T01:03:49.932Z,1030.59
2023-01-13T01:04:50.579Z,1030.55
2023-01-13T01:05:51.187Z,1030.55
2023-01-13T01:06:51.776Z,1030.47
2023-01-13T01:07:52.363Z,1030.53
2023-01-13T01:08:52.964Z,1030.58
2023-01-13T01:09:53.595Z,1030.52
2023-01-13T01:10:54.183Z,1030.58
2023-01-13T01:11:54.776Z,1030.59
2023-01-13T01:12:55.371Z,1030.57
2023-01-13T01:13:55.955Z,1030.65
2023-01-13T01:14:56.588Z,1030.64
2023-01-13T01:15:57.225Z,1030.58
2023-01-13T01:16:57.829Z,1030.58
2023-01-13T01:17:58.415Z,1030.57
2023-01-13T01:18:59.015Z,1030.66
2023-01-13T01:19:59.643Z,1030.60
2023-01-13T01:21:00.232Z,1030.64
2023-01-13T01:22:00.818Z,1030.65
2023-01-13T01:23:01.418Z,1030.63
2023-01-13T01:24:01.996Z,1030.63
2023-01-13T01:25:02.585Z,1030.68
2023-01-13T01:26:03.175Z,1030.56
2023-01-13T01:27:03.758Z,1030.61
2023-01-13T01:28:04.354Z,1030.65
2023-01-13T01:29:04.939Z,1030.67
2023-01-13T01:30:05.522Z,1030.63
2023-01-13T01:31:06.169Z,1030.63
2023-01-13T01:32:06.748Z,1030.66
2023-01-13T01:33:07.340Z,1030.67
2023-01-13T01:34:07.931Z,1030.69
2023-01-13T01:35:08.517Z,1030.68
2023-01-13T01:36:09.150Z,1030.70
2023-01-13T01:37:09.737Z,1030.73
2023-01-13T01:38:10.385Z,1030.71
2023-01-13T01:39:10.981Z,1030.70
2023-01-13T01:40:11.609Z,1030.69
2023-01-13T01:41:12.244Z,1030.69
2023-01-13T01:42:12.832Z,1030.74
2023-01-13T01:43:13.436Z,1030.83
2023-01-13T01:44:14.009Z,1030.78
2023-01-13T01:45:14.600Z,1030.71
2023-01-13T01:46:15.285Z,1030.74
2023-01-13T01:47:15.922Z,1030.71
2023-01-13T01:48:16.518Z,1030.76
2023-01-13T01:49:17.101Z,1030.71
2023-01-13T01:50:17.736Z,1030.73
2023-01-13T01:51:18.323Z,1030.68
2023-01-13T01:52:18.908Z,1030.77
2023-01-13T01:53:19.500Z,1030.77
2023-01-13T01:54:20.088Z,1030.63
2023-01-13T01:55:20.674Z,1030.70
2023-01-13T01:56:21.279Z,1030.76
2023-01-13T01:57:21.849Z,1030.72
2023-01-13T01:58:22.437Z,1030.74
2023-01-13T01:59:23.023Z,1030.68
2023-01-13T02:00:23.613Z,1030.71
2023-01-13T02:01:24.290Z,1030.84
2023-01-13T02:02:24.926Z,1030.73
2023-01-13T02:03:25.501Z,1030.66
2023-01-13T02:04:26.101Z,1030.65
2023-01-13T02:05:26.681Z,1030.69
2023-01-13T02:06:27.262Z,1030.73
2023-01-13T02:07:27.850Z,1030.57
2023-01-13T02:08:28.440Z,1030.63
2023-01-13T02:09:29.032Z,1030.67
2023-01-13T02:11:46.047Z,1030.67
2023-01-13T02:12:46.633Z,1030.67
2023-01-13T02:13:47.223Z,1030.61
2023-01-13T02:14:47.819Z,1030.70
2023-01-13T02:15:48.416Z,1030.69
2023-01-13T02:16:49.047Z,1030.71
2023-01-13T02:17:49.634Z,1030.67
2023-01-13T02:18:50.224Z,1030.67
2023-01-13T02:19:50.821Z,1030.69
2023-01-13T02:20:51.398Z,1030.71
2023-01-13T02:21:52.007Z,1030.70
2023-01-13T02:22:52.574Z,1030.69
2023-01-13T02:23:53.165Z,1030.78
2023-01-13T02:24:53.757Z,1030.80
2023-01-13T02:25:54.458Z,1030.79
2023-01-13T02:26:55.109Z,1030.72
2023-01-13T02:27:55.852Z,1030.73
2023-01-13T02:28:56.609Z,1030.78
2023-01-13T02:29:57.197Z,1030.77
2023-01-13T02:30:57.784Z,1030.71
2023-01-13T02:31:58.404Z,1030.69
2023-01-13T02:32:58.997Z,1030.68
2023-01-13T02:34:00.384Z,1030.73
2023-01-13T02:35:00.971Z,1030.69
2023-01-13T02:36:01.558Z,1030.72
2023-01-13T02:38:17.971Z,1030.70
2023-01-13T02:39:39.390Z,1030.79
2023-01-13T02:40:39.974Z,1030.79
2023-01-13T02:42:56.593Z,1030.69
2023-01-13T02:43:57.190Z,1030.69
2023-01-13T02:44:57.814Z,1030.67
2023-01-13T02:45:58.469Z,1030.66
2023-01-13T02:46:59.113Z,1030.68
2023-01-13T02:47:59.718Z,1030.71
2023-01-13T02:49:00.396Z,1030.74
2023-01-13T02:50:00.982Z,1030.76
2023-01-13T02:51:01.569Z,1030.66
2023-01-13T02:52:02.160Z,1030.66
2023-01-13T02:53:02.746Z,1030.66
2023-01-13T02:54:03.381Z,1030.75
2023-01-13T02:55:03.968Z,1030.72
2023-01-13T02:56:05.409Z,1030.77
2023-01-13T02:57:05.994Z,1030.77
2023-01-13T02:58:06.585Z,1030.77
2023-01-13T02:59:07.171Z,1030.78
2023-01-13T03:00:07.766Z,1030.78
2023-01-13T03:01:08.550Z,1030.78
2023-01-13T03:02:09.277Z,1030.80
2023-01-13T03:03:09.930Z,1030.72
2023-01-13T03:04:10.535Z,1030.76
2023-01-13T03:05:11.131Z,1030.77
2023-01-13T03:06:11.731Z,1030.82
2023-01-13T03:07:12.327Z,1030.78
2023-01-13T03:08:12.925Z,1030.77
2023-01-13T03:09:13.532Z,1030.73
2023-01-13T03:10:14.124Z,1030.70
2023-01-13T03:11:14.734Z,1030.69
2023-01-13T03:12:15.390Z,1030.69
2023-01-13T03:13:16.005Z,1030.68
2023-01-13T03:14:16.591Z,1030.59
2023-01-13T03:15:17.194Z,1030.65
2023-01-13T03:16:17.813Z,1030.61
2023-01-13T03:17:18.405Z,1030.55
2023-01-13T03:18:19.010Z,1030.52
2023-01-13T03:19:19.611Z,1030.54
2023-01-13T03:20:20.209Z,1030.59
2023-01-13T03:21:20.813Z,1030.52
2023-01-13T03:22:21.408Z,1030.56
2023-01-13T03:23:22.009Z,1030.58
2023-01-13T03:24:22.677Z,1030.55
2023-01-13T03:26:39.923Z,1030.58
2023-01-13T03:27:40.632Z,1030.66
2023-01-13T03:28:41.231Z,1030.61
2023-01-13T03:29:41.829Z,1030.50
2023-01-13T03:30:46.499Z,1030.55
2023-01-13T03:33:03.971Z,1030.49
2023-01-13T03:34:04.569Z,1030.54
2023-01-13T03:35:49.273Z,1030.48
2023-01-13T03:39:07.898Z,1030.45
2023-01-13T03:40:08.492Z,1030.47
2023-01-13T03:41:09.100Z,1030.47
2023-01-13T03:42:50.399Z,1030.50
2023-01-13T03:43:51.200Z,1030.48
2023-01-13T03:46:07.237Z,1030.44
2023-01-13T03:47:07.876Z,1030.44
2023-01-13T03:48:08.488Z,1030.47
2023-01-13T03:49:09.071Z,1030.43
2023-01-13T03:50:09.706Z,1030.51
2023-01-13T03:51:10.292Z,1030.47
2023-01-13T03:52:10.899Z,1030.50
2023-01-13T03:54:27.922Z,1030.52
2023-01-13T03:55:28.526Z,1030.58
2023-01-13T03:56:29.971Z,1030.53
2023-01-13T03:57:30.635Z,1030.54
2023-01-13T03:58:31.241Z,1030.56
2023-01-13T03:59:31.831Z,1030.50
2023-01-13T04:00:32.496Z,1030.48
2023-01-13T04:01:33.217Z,1030.49
2023-01-13T04:02:34.017Z,1030.47
2023-01-13T04:03:34.643Z,1030.42
2023-01-13T04:04:35.290Z,1030.45
2023-01-13T04:05:35.890Z,1030.37
2023-01-13T04:06:49.308Z,1030.43
2023-01-13T04:09:05.652Z,1030.36
2023-01-13T04:10:06.258Z,1030.28
2023-01-13T04:11:06.916Z,1030.30
2023-01-13T04:12:07.520Z,1030.25
2023-01-13T04:13:08.115Z,1030.28
2023-01-13T04:14:08.788Z,1030.29
2023-01-13T04:15:26.310Z,1030.29
2023-01-13T04:16:27.727Z,1030.34
2023-01-13T04:18:45.138Z,1030.32
2023-01-13T04:21:01.636Z,1030.35
2023-01-13T04:22:02.240Z,1030.30
2023-01-13T04:23:03.676Z,1030.27
2023-01-13T04:24:04.344Z,1030.25
2023-01-13T04:25:05.005Z,1030.20
2023-01-13T04:27:21.032Z,1030.25
2023-01-13T04:28:21.627Z,1030.24
2023-01-13T04:29:23.033Z,1030.25
2023-01-13T04:30:23.646Z,1030.33
2023-01-13T04:31:24.375Z,1030.25
2023-01-13T04:32:24.987Z,1030.29
2023-01-13T04:33:25.657Z,1030.34
2023-01-13T04:34:28.289Z,1030.27
2023-01-13T04:35:27.890Z,1030.32
2023-01-13T04:36:28.486Z,1030.32
2023-01-13T04:37:29.093Z,1030.36
2023-01-13T04:38:29.681Z,1030.35
2023-01-13T04:39:30.289Z,1030.33
2023-01-13T04:40:32.662Z,1030.33
2023-01-13T04:41:33.225Z,1030.30
2023-01-13T04:42:33.821Z,1030.40
2023-01-13T04:45:23.544Z,1030.39
2023-01-13T04:46:24.252Z,1030.42
2023-01-13T04:47:24.864Z,1030.34
2023-01-13T04:48:42.302Z,1030.42
2023-01-13T04:49:42.895Z,1030.39
2023-01-13T04:50:43.496Z,1030.38
2023-01-13T04:51:44.163Z,1030.35
2023-01-13T04:52:44.760Z,1030.35
2023-01-13T04:53:45.353Z,1030.34
2023-01-13T04:54:45.961Z,1030.28
2023-01-13T04:55:46.545Z,1030.31
2023-01-13T04:56:47.157Z,1030.26
2023-01-13T04:57:47.746Z,1030.23
2023-01-13T04:58:48.346Z,1030.23
2023-01-13T04:59:48.946Z,1030.25
2023-01-13T05:00:49.549Z,1030.22
2023-01-13T05:01:51.262Z,1030.22
2023-01-13T05:02:51.924Z,1030.27
2023-01-13T05:03:52.566Z,1030.30
2023-01-13T05:04:53.208Z,1030.22
2023-01-13T05:05:53.954Z,1030.27
2023-01-13T05:06:54.618Z,1030.24
2023-01-13T05:07:55.221Z,1030.29
2023-01-13T05:08:55.818Z,1030.29
2023-01-13T05:09:56.409Z,1030.26
2023-01-13T05:10:57.022Z,1030.24
2023-01-13T05:11:57.610Z,1030.25
2023-01-13T05:12:58.284Z,1030.22
2023-01-13T05:13:58.871Z,1030.27
2023-01-13T05:14:59.474Z,1030.27
2023-01-13T05:16:00.153Z,1030.25
2023-01-13T05:17:00.816Z,1030.24
2023-01-13T05:18:01.412Z,1030.25
2023-01-13T05:19:02.074Z,1030.20
2023-01-13T05:20:02.664Z,1030.15
2023-01-13T05:21:03.267Z,1030.25
2023-01-13T05:22:03.861Z,1030.10
2023-01-13T05:23:04.472Z,1030.14
2023-01-13T05:24:05.102Z,1030.12
2023-01-13T05:25:05.700Z,1030.09
2023-01-13T05:26:06.298Z,1030.15
2023-01-13T05:27:06.901Z,1030.12
2023-01-13T05:28:07.491Z,1030.21
2023-01-13T05:29:08.094Z,1030.19
2023-01-13T05:30:08.723Z,1030.25
2023-01-13T05:31:09.321Z,1030.21
2023-01-13T05:32:09.983Z,1030.26
2023-01-13T05:33:10.592Z,1030.28
2023-01-13T05:34:11.184Z,1030.28
2023-01-13T05:35:11.871Z,1030.30
2023-01-13T05:36:12.513Z,1030.30
2023-01-13T05:37:13.108Z,1030.35
2023-01-13T05:38:13.704Z,1030.27
2023-01-13T05:39:14.316Z,1030.37
2023-01-13T05:40:14.925Z,1030.37
2023-01-13T05:41:15.510Z,1030.37
2023-01-13T05:42:16.153Z,1030.32
2023-01-13T05:43:16.757Z,1030.28
2023-01-13T05:44:17.353Z,1030.35
2023-01-13T05:45:17.970Z,1030.36
2023-01-13T05:46:18.574Z,1030.35
2023-01-13T05:47:19.215Z,1030.39
2023-01-13T05:48:19.804Z,1030.33
2023-01-13T05:49:20.446Z,1030.31
2023-01-13T05:50:21.046Z,1030.32
2023-01-13T05:51:21.638Z,1030.54
2023-01-13T05:52:22.239Z,1030.44
2023-01-13T05:53:22.851Z,1030.43
2023-01-13T05:54:23.434Z,1030.48
2023-01-13T05:55:24.054Z,1030.43
2023-01-13T05:56:24.629Z,1030.37
2023-01-13T05:57:25.239Z,1030.36
2023-01-13T05:58:25.829Z,1030.41
2023-01-13T05:59:26.429Z,1030.42
2023-01-13T06:00:27.023Z,1030.45
2023-01-13T06:01:27.747Z,1030.48
2023-01-13T06:02:28.359Z,1030.48
2023-01-13T06:03:28.967Z,1030.57
2023-01-13T06:04:29.663Z,1030.56
2023-01-13T06:05:30.264Z,1030.57
2023-01-13T06:06:30.857Z,1030.66
2023-01-13T06:07:31.512Z,1030.64
2023-01-13T06:08:32.259Z,1030.66
2023-01-13T06:09:32.860Z,1030.56
2023-01-13T06:10:33.453Z,1030.64
2023-01-13T06:11:34.121Z,1030.68
2023-01-13T06:12:34.712Z,1030.74
2023-01-13T06:13:35.333Z,1030.70
2023-01-13T06:14:37.235Z,1030.68
2023-01-13T06:15:37.510Z,1030.68
2023-01-13T06:16:38.106Z,1030.66
2023-01-13T06:17:38.709Z,1030.68
2023-01-13T06:18:39.303Z,1030.61
2023-01-13T06:19:39.907Z,1030.70
2023-01-13T06:20:40.501Z,1030.73
2023-01-13T06:21:41.096Z,1030.71
2023-01-13T06:22:41.693Z,1030.68
2023-01-13T06:23:42.413Z,1030.71
2023-01-13T06:24:43.003Z,1030.74
2023-01-13T06:25:43.611Z,1030.70
2023-01-13T06:26:44.276Z,1030.73
2023-01-13T06:27:44.874Z,1030.73
2023-01-13T06:28:45.481Z,1030.72
2023-01-13T06:29:46.069Z,1030.64
2023-01-13T06:30:46.674Z,1030.71
2023-01-13T06:31:47.275Z,1030.70
2023-01-13T06:32:48.041Z,1030.70
2023-01-13T06:33:48.744Z,1030.66
2023-01-13T06:34:49.345Z,1030.77
2023-01-13T06:35:49.946Z,1030.63
2023-01-13T06:36:50.545Z,1030.67
2023-01-13T06:37:51.145Z,1030.65
2023-01-13T06:38:51.891Z,1030.63
2023-01-13T06:39:52.542Z,1030.71
2023-01-13T06:40:53.136Z,1030.64
2023-01-13T06:41:53.742Z,1030.68
2023-01-13T06:42:54.378Z,1030.58
2023-01-13T06:43:54.978Z,1030.57
2023-01-13T06:44:55.586Z,1030.58
2023-01-13T06:45:56.187Z,1030.57
2023-01-13T06:46:56.875Z,1030.56
2023-01-13T06:47:57.549Z,1030.60
2023-01-13T06:48:58.144Z,1030.62
2023-01-13T06:49:58.748Z,1030.67
2023-01-13T06:50:59.346Z,1030.66
2023-01-13T06:51:59.943Z,1030.68
2023-01-13T06:53:00.540Z,1030.81
2023-01-13T06:54:01.133Z,1030.75
2023-01-13T06:55:01.728Z,1030.72
2023-01-13T06:56:02.335Z,1030.71
2023-01-13T06:57:02.922Z,1030.77
2023-01-13T06:58:03.529Z,1030.88
2023-01-13T06:59:04.199Z,1030.87
2023-01-13T07:00:04.799Z,1030.91
2023-01-13T07:01:05.458Z,1030.90
2023-01-13T07:02:06.282Z,1030.87
2023-01-13T07:03:07.222Z,1030.91
2023-01-13T07:04:07.835Z,1030.92
2023-01-13T07:05:08.427Z,1030.89
2023-01-13T07:06:09.029Z,1030.87
2023-01-13T07:07:09.621Z,1030.91
2023-01-13T07:08:10.223Z,1030.90
2023-01-13T07:09:10.824Z,1030.92
2023-01-13T07:10:11.419Z,1030.93
2023-01-13T07:11:12.008Z,1030.95
2023-01-13T07:12:12.611Z,1030.91
2023-01-13T07:13:13.204Z,1030.91
2023-01-13T07:14:13.819Z,1030.95
2023-01-13T07:15:14.440Z,1030.96
2023-01-13T07:16:15.081Z,1030.98
2023-01-13T07:17:15.703Z,1030.89
2023-01-13T07:18:16.306Z,1030.86
2023-01-13T07:19:16.899Z,1031.01
2023-01-13T07:20:17.511Z,1031.01
2023-01-13T07:21:18.109Z,1030.95
2023-01-13T07:22:18.714Z,1030.99
2023-01-13T07:23:19.303Z,1030.99
2023-01-13T07:24:19.921Z,1030.98
2023-01-13T07:25:20.497Z,1031.10
2023-01-13T07:26:21.115Z,1031.14
2023-01-13T07:27:21.696Z,1031.16
2023-01-13T07:28:22.297Z,1031.09
2023-01-13T07:29:22.896Z,1031.11
2023-01-13T07:30:23.560Z,1031.11
2023-01-13T07:31:24.233Z,1031.04
2023-01-13T07:32:24.830Z,1031.00
2023-01-13T07:33:25.435Z,1030.88
2023-01-13T07:34:26.135Z,1031.01
2023-01-13T07:35:27.602Z,1030.98
2023-01-13T07:36:28.178Z,1031.14
2023-01-13T07:37:28.776Z,1031.07
2023-01-13T07:38:29.377Z,1031.08
2023-01-13T07:39:29.969Z,1031.19
2023-01-13T07:40:30.576Z,1031.20
2023-01-13T07:41:31.169Z,1031.15
2023-01-13T07:42:31.832Z,1031.15
2023-01-13T07:43:32.432Z,1031.15
2023-01-13T07:44:33.146Z,1031.20
2023-01-13T07:45:33.743Z,1031.13
2023-01-13T07:46:34.383Z,1031.07
2023-01-13T07:47:34.981Z,1031.15
2023-01-13T07:48:35.581Z,1031.17
2023-01-13T07:49:36.224Z,1031.21
2023-01-13T07:50:36.824Z,1031.15
2023-01-13T07:51:37.418Z,1031.15
2023-01-13T07:52:38.020Z,1031.12
2023-01-13T07:53:38.782Z,1031.08
2023-01-13T07:54:40.900Z,1031.05
2023-01-13T07:55:40.955Z,1031.00
2023-01-13T07:56:41.555Z,1031.06
2023-01-13T07:57:42.149Z,1031.09
2023-01-13T07:58:42.748Z,1031.06
2023-01-13T07:59:43.344Z,1031.14
2023-01-13T08:00:44.030Z,1031.22
2023-01-13T08:01:44.759Z,1031.16
2023-01-13T08:02:45.429Z,1031.23
2023-01-13T08:03:46.049Z,1031.18
2023-01-13T08:04:46.651Z,1031.14
2023-01-13T08:05:47.243Z,1031.16
2023-01-13T08:06:47.847Z,1031.14
2023-01-13T08:07:48.445Z,1031.13
2023-01-13T08:08:49.051Z,1031.13
2023-01-13T08:09:49.637Z,1031.19
2023-01-13T08:10:50.298Z,1031.15
2023-01-13T08:11:50.892Z,1031.18
2023-01-13T08:12:53.718Z,1031.17
2023-01-13T08:13:53.081Z,1031.11
2023-01-13T08:14:53.685Z,1031.14
2023-01-13T08:15:54.307Z,1031.18
2023-01-13T08:16:54.918Z,1031.12
2023-01-13T08:17:55.518Z,1031.09
2023-01-13T08:18:56.124Z,1031.13
2023-01-13T08:19:56.717Z,1031.05
2023-01-13T08:20:57.318Z,1031.13
2023-01-13T08:21:57.917Z,1031.12
2023-01-13T08:22:58.513Z,1031.11
2023-01-13T08:23:59.115Z,1031.17
2023-01-13T08:24:59.709Z,1031.20
2023-01-13T08:26:00.299Z,1031.21
2023-01-13T08:27:00.925Z,1031.24
2023-01-13T08:28:01.520Z,1031.24
2023-01-13T08:29:02.125Z,1031.21
2023-01-13T08:30:02.718Z,1031.30
2023-01-13T08:31:03.434Z,1031.39
2023-01-13T08:32:03.981Z,1031.39
2023-01-13T08:33:04.586Z,1031.42
2023-01-13T08:34:05.223Z,1031.49
2023-01-13T08:35:05.831Z,1031.45
2023-01-13T08:36:06.543Z,1031.45
2023-01-13T08:37:07.139Z,1031.47
2023-01-13T08:38:07.731Z,1031.44
2023-01-13T08:39:08.337Z,1031.47
2023-01-13T08:40:08.924Z,1031.44
2023-01-13T08:41:09.528Z,1031.49
2023-01-13T08:42:10.125Z,1031.50
2023-01-13T08:43:10.791Z,1031.52
2023-01-13T08:44:11.386Z,1031.50
2023-01-13T08:45:11.989Z,1031.49
2023-01-13T08:46:12.642Z,1031.56
2023-01-13T08:47:13.320Z,1031.53
2023-01-13T08:48:13.919Z,1031.56
2023-01-13T08:49:14.573Z,1031.50
2023-01-13T08:50:15.235Z,1031.48
2023-01-13T08:51:15.890Z,1031.47
2023-01-13T08:52:16.565Z,1031.53
2023-01-13T08:53:17.153Z,1031.51
2023-01-13T08:54:17.749Z,1031.63
2023-01-13T08:55:18.360Z,1031.62
2023-01-13T08:56:19.888Z,1031.60
2023-01-13T08:57:20.541Z,1031.60
2023-01-13T08:58:21.125Z,1031.61
2023-01-13T08:59:21.790Z,1031.63
2023-01-13T09:00:22.525Z,1031.58
2023-01-13T09:01:23.291Z,1031.64
2023-01-13T09:02:24.027Z,1031.63
2023-01-13T09:03:24.636Z,1031.57
2023-01-13T09:04:25.233Z,1031.60
2023-01-13T09:05:25.847Z,1031.63
2023-01-13T09:06:26.463Z,1031.65
2023-01-13T09:07:27.056Z,1031.62
2023-01-13T09:08:27.691Z,1031.68
2023-01-13T09:09:28.280Z,1031.62
2023-01-13T09:10:28.940Z,1031.61
2023-01-13T09:11:29.536Z,1031.62
2023-01-13T09:12:30.136Z,1031.69
2023-01-13T09:13:30.731Z,1031.62
2023-01-13T09:14:31.337Z,1031.70
2023-01-13T09:15:32.128Z,1031.69
2023-01-13T09:16:32.742Z,1031.59
2023-01-13T09:17:33.341Z,1031.60
2023-01-13T09:18:33.938Z,1031.57
2023-01-13T09:19:35.399Z,1031.55
2023-01-13T09:20:36.014Z,1031.55
2023-01-13T09:21:36.592Z,1031.56
2023-01-13T09:22:37.997Z,1031.60
2023-01-13T09:23:38.588Z,1031.56
2023-01-13T09:24:39.255Z,1031.56
2023-01-13T09:25:39.875Z,1031.65
2023-01-13T09:26:40.467Z,1031.73
2023-01-13T09:27:41.066Z,1031.58
2023-01-13T09:28:41.729Z,1031.65
2023-01-13T09:29:42.321Z,1031.56
2023-01-13T09:30:42.926Z,1031.69
2023-01-13T09:31:44.362Z,1031.75
2023-01-13T09:32:45.098Z,1031.74
2023-01-13T09:33:45.690Z,1031.80
2023-01-13T09:34:46.294Z,1031.85
2023-01-13T09:35:46.895Z,1031.84
2023-01-13T09:36:47.492Z,1031.89
2023-01-13T09:37:48.081Z,1031.81
2023-01-13T09:38:48.833Z,1031.84
2023-01-13T09:39:49.426Z,1031.84
2023-01-13T09:40:50.070Z,1031.84
2023-01-13T09:41:50.693Z,1031.85
2023-01-13T09:42:51.351Z,1031.85
2023-01-13T09:43:51.946Z,1031.83
2023-01-13T09:44:52.543Z,1031.90
2023-01-13T09:45:53.134Z,1031.91
2023-01-13T09:46:53.756Z,1031.98
2023-01-13T09:47:54.357Z,1031.91
2023-01-13T09:48:55.017Z,1032.00
2023-01-13T09:49:55.629Z,1031.97
2023-01-13T09:50:56.231Z,1031.94
2023-01-13T09:51:56.825Z,1031.97
2023-01-13T09:52:57.479Z,1032.00
2023-01-13T09:53:58.145Z,1031.96
2023-01-13T09:54:58.750Z,1031.93
2023-01-13T09:55:59.342Z,1031.91
2023-01-13T09:56:59.940Z,1031.89
2023-01-13T09:58:00.537Z,1031.91
2023-01-13T09:59:01.148Z,1031.85
2023-01-13T10:00:01.759Z,1031.90
2023-01-13T10:01:02.545Z,1031.93
2023-01-13T10:02:03.271Z,1031.95
2023-01-13T10:03:03.937Z,1031.92
2023-01-13T10:04:04.568Z,1031.94
2023-01-13T10:05:05.253Z,1031.86
2023-01-13T10:06:05.951Z,1031.88
2023-01-13T10:07:06.541Z,1031.95
2023-01-13T10:08:07.983Z,1031.89
2023-01-13T10:09:08.739Z,1031.97
2023-01-13T10:10:09.556Z,1031.97
2023-01-13T10:11:10.144Z,1031.99
2023-01-13T10:12:10.749Z,1031.91
2023-01-13T10:13:11.338Z,1032.02
2023-01-13T10:14:11.940Z,1031.95
2023-01-13T10:15:12.538Z,1031.93
2023-01-13T10:16:13.173Z,1031.94
2023-01-13T10:17:13.772Z,1031.87
2023-01-13T10:18:14.366Z,1031.83
2023-01-13T10:19:15.031Z,1031.81
2023-01-13T10:20:15.627Z,1031.77
2023-01-13T10:21:16.289Z,1031.74
2023-01-13T10:22:16.884Z,1031.80
2023-01-13T10:23:17.490Z,1031.74
2023-01-13T10:24:18.085Z,1031.77
2023-01-13T10:25:18.699Z,1031.77
2023-01-13T10:26:19.328Z,1031.77
2023-01-13T10:27:19.970Z,1031.90
2023-01-13T10:28:20.638Z,1031.88
2023-01-13T10:29:21.225Z,1031.88
2023-01-13T10:30:21.822Z,1031.85
2023-01-13T10:31:22.521Z,1031.91
2023-01-13T10:32:23.144Z,1031.87
2023-01-13T10:33:24.467Z,1031.98
2023-01-13T10:34:24.418Z,1031.95
2023-01-13T10:35:25.015Z,1031.98
2023-01-13T10:36:25.611Z,1032.02
2023-01-13T10:37:26.221Z,1032.04
2023-01-13T10:38:26.805Z,1032.02
2023-01-13T10:39:27.411Z,1032.02
2023-01-13T10:40:27.998Z,1032.04
2023-01-13T10:41:28.602Z,1032.10
2023-01-13T10:42:29.204Z,1032.10
2023-01-13T10:43:29.863Z,1032.06
2023-01-13T10:44:30.463Z,1032.01
2023-01-13T10:45:31.100Z,1031.98
2023-01-13T10:46:31.727Z,1032.01
2023-01-13T10:47:32.337Z,1031.92
2023-01-13T10:48:32.936Z,1032.01
2023-01-13T10:49:33.611Z,1031.98
2023-01-13T10:50:34.202Z,1031.95
2023-01-13T10:51:35.597Z,1032.07
2023-01-13T10:52:36.236Z,1032.04
2023-01-13T10:53:36.837Z,1032.01
2023-01-13T10:54:37.431Z,1031.94
2023-01-13T10:55:38.030Z,1032.03
2023-01-13T10:56:38.635Z,1032.03
2023-01-13T10:57:39.291Z,1031.96
2023-01-13T10:58:39.886Z,1031.98
2023-01-13T10:59:40.493Z,1031.95
2023-01-13T11:00:41.093Z,1031.92
2023-01-13T11:01:42.647Z,1031.85
2023-01-13T11:02:43.403Z,1031.87
2023-01-13T11:03:44.157Z,1031.89
2023-01-13T11:04:44.767Z,1031.94
2023-01-13T11:05:45.358Z,1031.96
2023-01-13T11:06:45.957Z,1031.96
2023-01-13T11:07:46.561Z,1031.96
2023-01-13T11:08:47.155Z,1031.93
2023-01-13T11:09:47.906Z,1031.88
2023-01-13T11:10:48.499Z,1031.87
2023-01-13T11:11:49.106Z,1031.91
2023-01-13T11:12:51.223Z,1031.89
2023-01-13T11:13:51.918Z,1031.91
2023-01-13T11:14:52.504Z,1031.94
2023-01-13T11:15:53.207Z,1031.96
2023-01-13T11:16:54.048Z,1031.95
2023-01-13T11:17:54.663Z,1032.04
2023-01-13T11:18:55.280Z,1032.03
2023-01-13T11:19:55.890Z,1032.00
2023-01-13T11:20:57.281Z,1032.03
2023-01-13T11:21:57.882Z,1031.96
2023-01-13T11:22:58.480Z,1031.85
2023-01-13T11:23:59.083Z,1031.92
2023-01-13T11:24:59.676Z,1031.87
2023-01-13T11:26:00.280Z,1031.86
2023-01-13T11:27:00.872Z,1031.81
2023-01-13T11:28:02.275Z,1031.76
2023-01-13T11:29:02.879Z,1031.69
2023-01-13T11:30:03.473Z,1031.72
2023-01-13T11:31:04.108Z,1031.74
2023-01-13T11:32:04.710Z,1031.70
2023-01-13T11:33:05.363Z,1031.76
2023-01-13T11:34:05.965Z,1031.76
2023-01-13T11:35:06.559Z,1031.72
2023-01-13T11:36:07.160Z,1031.76
2023-01-13T11:37:07.754Z,1031.75
2023-01-13T11:38:08.420Z,1031.77
2023-01-13T11:39:09.017Z,1031.69
2023-01-13T11:40:09.622Z,1031.63
2023-01-13T11:41:10.217Z,1031.67
2023-01-13T11:42:10.817Z,1031.68
2023-01-13T11:43:11.484Z,1031.71
2023-01-13T11:44:12.085Z,1031.66
2023-01-13T11:45:12.683Z,1031.70
2023-01-13T11:46:13.348Z,1031.69
2023-01-13T11:47:13.941Z,1031.71
2023-01-13T11:48:14.543Z,1031.60
2023-01-13T11:49:15.212Z,1031.70
2023-01-13T11:50:15.933Z,1031.67
2023-01-13T11:51:16.666Z,1031.62
2023-01-13T11:52:17.276Z,1031.63
2023-01-13T11:53:17.863Z,1031.63
2023-01-13T11:54:18.510Z,1031.61
2023-01-13T11:55:20.550Z,1031.60
2023-01-13T11:56:21.540Z,1031.52
2023-01-13T11:57:22.133Z,1031.52
2023-01-13T11:58:22.735Z,1031.47
2023-01-13T11:59:23.339Z,1031.52
2023-01-13T12:00:23.933Z,1031.50
2023-01-13T12:01:24.592Z,1031.49
2023-01-13T12:02:25.234Z,1031.52
2023-01-13T12:03:25.895Z,1031.53
2023-01-13T12:04:26.507Z,1031.54
2023-01-13T12:05:27.101Z,1031.50
2023-01-13T12:06:27.753Z,1031.52
2023-01-13T12:07:28.351Z,1031.50
2023-01-13T12:08:28.951Z,1031.42
2023-01-13T12:09:29.547Z,1031.46
2023-01-13T12:10:30.948Z,1031.46
2023-01-13T12:11:31.548Z,1031.45
2023-01-13T12:12:32.150Z,1031.48
2023-01-13T12:13:32.742Z,1031.45
2023-01-13T12:14:33.517Z,1031.52
2023-01-13T12:15:34.107Z,1031.41
2023-01-13T12:16:34.730Z,1031.47
2023-01-13T12:17:35.327Z,1031.43
2023-01-13T12:18:35.935Z,1031.52
2023-01-13T12:19:36.526Z,1031.57
2023-01-13T12:20:38.061Z,1031.58
2023-01-13T12:21:38.708Z,1031.61
2023-01-13T12:22:39.308Z,1031.62
2023-01-13T12:23:39.901Z,1031.52
2023-01-13T12:24:40.505Z,1031.51
2023-01-13T12:25:41.252Z,1031.46
2023-01-13T12:26:41.867Z,1031.46
2023-01-13T12:27:42.451Z,1031.47
2023-01-13T12:28:43.095Z,1031.45
2023-01-13T12:29:43.703Z,1031.54
2023-01-13T12:30:45.294Z,1031.50
2023-01-13T12:31:46.770Z,1031.47
2023-01-13T12:32:47.442Z,1031.43
2023-01-13T12:33:48.253Z,1031.40